createdAt,value
2017-08-11T00:00:26.751Z,5.03
2017-08-11T00:02:54.326Z,4.20
2017-08-11T00:05:22.582Z,2.23
2017-08-11T00:07:50.170Z,2.60
2017-08-11T00:10:17.648Z,1.80
2017-08-11T00:12:45.168Z,2.13
2017-08-11T00:15:13.446Z,1.83
2017-08-11T00:17:44.691Z,4.03
2017-08-11T00:20:13.068Z,1.67
2017-08-11T00:22:41.346Z,4.20
2017-08-11T00:25:09.635Z,2.30
2017-08-11T00:27:37.900Z,1.60
2017-08-11T00:30:06.192Z,1.70
2017-08-11T00:32:34.440Z,3.10
2017-08-11T00:35:05.394Z,1.53
2017-08-11T00:37:33.655Z,1.87
2017-08-11T00:40:01.140Z,1.80
2017-08-11T00:42:29.389Z,1.67
2017-08-11T00:44:56.906Z,1.70
2017-08-11T00:47:24.418Z,2.90
2017-08-11T00:49:52.705Z,2.10
2017-08-11T00:52:20.950Z,1.83
2017-08-11T00:54:48.534Z,2.83
2017-08-11T00:57:16.804Z,2.80
2017-08-11T00:59:45.085Z,2.97
2017-08-11T01:02:13.368Z,1.70
2017-08-11T01:04:41.638Z,1.87
2017-08-11T01:07:09.905Z,2.07
2017-08-11T01:09:37.477Z,1.60
2017-08-11T01:12:05.744Z,2.00
2017-08-11T01:14:34.028Z,4.43
2017-08-11T01:17:02.399Z,1.40
2017-08-11T01:19:29.967Z,1.70
2017-08-11T01:21:58.242Z,1.60
2017-08-11T01:24:25.714Z,1.80
2017-08-11T01:26:53.255Z,1.70
2017-08-11T01:29:21.539Z,1.47
2017-08-11T01:31:49.807Z,1.80
2017-08-11T01:34:17.383Z,1.83
2017-08-11T01:36:44.937Z,1.70
2017-08-11T01:39:13.178Z,2.00
2017-08-11T01:41:40.665Z,1.90
2017-08-11T01:44:08.934Z,1.80
2017-08-11T01:46:36.500Z,1.50
2017-08-11T01:49:04.048Z,1.80
2017-08-11T01:51:31.516Z,1.40
2017-08-11T01:53:59.761Z,1.80
2017-08-11T01:56:27.242Z,1.90
2017-08-11T01:58:54.746Z,3.80
2017-08-11T02:01:22.229Z,1.60
2017-08-11T02:03:49.736Z,1.53
2017-08-11T02:06:32.586Z,2.37
2017-08-11T02:09:00.065Z,1.67
2017-08-11T02:11:27.554Z,3.57
2017-08-11T02:13:55.058Z,2.27
2017-08-11T02:16:22.521Z,1.50
2017-08-11T02:18:50.131Z,1.90
2017-08-11T02:21:18.416Z,1.80
2017-08-11T02:23:46.689Z,2.83
2017-08-11T02:26:14.979Z,1.73
2017-08-11T02:28:43.233Z,1.73
2017-08-11T02:31:10.717Z,1.90
2017-08-11T02:33:38.248Z,1.60
2017-08-11T02:36:05.729Z,1.60
2017-08-11T02:38:33.990Z,2.90
2017-08-11T02:41:02.271Z,1.90
2017-08-11T02:43:30.519Z,1.80
2017-08-11T02:45:58.139Z,1.57
2017-08-11T02:48:25.671Z,6.53
2017-08-11T02:50:53.935Z,4.70
2017-08-11T02:53:22.227Z,2.00
2017-08-11T02:55:50.492Z,1.90
2017-08-11T02:58:18.752Z,1.67
2017-08-11T03:00:46.248Z,2.63
2017-08-11T03:03:13.777Z,3.13
2017-08-11T03:05:41.342Z,2.10
2017-08-11T03:08:09.603Z,1.83
2017-08-11T03:10:37.080Z,1.93
2017-08-11T03:13:05.360Z,1.80
2017-08-11T03:15:33.725Z,3.83
2017-08-11T03:18:02.016Z,4.00
2017-08-11T03:20:30.290Z,1.63
2017-08-11T03:22:58.544Z,2.20
2017-08-11T03:25:26.057Z,1.63
2017-08-11T03:27:53.571Z,1.77
2017-08-11T03:30:21.144Z,1.83
2017-08-11T03:32:49.403Z,2.20
2017-08-11T03:35:16.892Z,5.30
2017-08-11T03:37:44.395Z,2.00
2017-08-11T03:40:11.888Z,3.37
2017-08-11T03:42:40.165Z,2.70
2017-08-11T03:45:08.441Z,1.87
2017-08-11T03:47:36.690Z,2.37
2017-08-11T03:50:04.273Z,4.13
2017-08-11T03:52:32.512Z,1.90
2017-08-11T03:55:00.022Z,2.50
2017-08-11T03:57:28.281Z,3.13
2017-08-11T03:59:55.842Z,1.80
2017-08-11T04:02:23.410Z,2.00
2017-08-11T04:04:51.699Z,1.87
2017-08-11T04:07:19.252Z,2.53
2017-08-11T04:09:47.521Z,1.80
2017-08-11T04:12:15.802Z,2.30
2017-08-11T04:14:44.064Z,2.80
2017-08-11T04:17:11.559Z,1.97
2017-08-11T04:19:39.034Z,2.70
2017-08-11T04:22:06.551Z,2.30
2017-08-11T04:24:34.809Z,7.10
2017-08-11T04:27:02.384Z,2.50
2017-08-11T04:29:30.671Z,2.13
2017-08-11T04:31:58.941Z,3.10
2017-08-11T04:34:27.228Z,1.90
2017-08-11T04:36:55.492Z,2.03
2017-08-11T04:39:23.765Z,1.97
2017-08-11T04:41:52.034Z,3.13
2017-08-11T04:44:19.508Z,1.60
2017-08-11T04:46:47.779Z,1.63
2017-08-11T04:49:16.051Z,5.97
2017-08-11T04:51:44.326Z,1.60
2017-08-11T04:54:12.607Z,3.27
2017-08-11T04:56:40.884Z,2.90
2017-08-11T04:59:09.119Z,2.83
2017-08-11T05:01:36.594Z,2.77
2017-08-11T05:04:04.085Z,3.13
2017-08-11T05:06:32.395Z,1.93
2017-08-11T05:08:59.906Z,1.70
2017-08-11T05:11:28.176Z,2.50
2017-08-11T05:13:55.739Z,2.10
2017-08-11T05:16:23.302Z,2.13
2017-08-11T05:18:51.582Z,1.70
2017-08-11T05:21:19.892Z,1.90
2017-08-11T05:23:47.420Z,3.20
2017-08-11T05:26:15.653Z,1.57
2017-08-11T05:28:43.256Z,1.70
2017-08-11T05:31:11.526Z,3.63
2017-08-11T05:33:39.801Z,1.97
2017-08-11T05:36:07.358Z,3.63
2017-08-11T05:38:35.639Z,1.83
2017-08-11T05:41:03.911Z,1.93
2017-08-11T05:43:31.483Z,1.70
2017-08-11T05:45:59.725Z,5.80
2017-08-11T05:48:27.317Z,4.50
2017-08-11T05:50:55.585Z,1.83
2017-08-11T05:53:23.844Z,3.47
2017-08-11T05:55:51.318Z,2.07
2017-08-11T05:58:19.566Z,4.47
2017-08-11T06:00:47.064Z,1.80
2017-08-11T06:03:15.361Z,3.00
2017-08-11T06:05:42.857Z,2.17
2017-08-11T06:08:10.326Z,1.60
2017-08-11T06:10:37.806Z,2.60
2017-08-11T06:13:06.088Z,2.07
2017-08-11T06:15:34.366Z,2.53
2017-08-11T06:18:02.629Z,1.70
2017-08-11T06:20:30.211Z,1.73
2017-08-11T06:22:58.581Z,2.60
2017-08-11T06:25:26.838Z,1.80
2017-08-11T06:27:54.410Z,1.73
2017-08-11T06:30:22.686Z,2.40
2017-08-11T06:32:51.857Z,6.23
2017-08-11T06:35:19.394Z,2.63
2017-08-11T06:37:46.998Z,1.80
2017-08-11T06:40:14.560Z,2.30
2017-08-11T06:42:42.847Z,2.03
2017-08-11T06:45:11.102Z,1.93
2017-08-11T06:47:38.672Z,2.23
2017-08-11T06:50:06.950Z,2.60
2017-08-11T06:52:35.216Z,2.63
2017-08-11T06:55:02.796Z,2.43
2017-08-11T06:57:31.040Z,2.10
2017-08-11T06:59:58.628Z,2.00
2017-08-11T07:02:26.897Z,2.70
2017-08-11T07:04:55.189Z,2.87
2017-08-11T07:07:23.455Z,2.50
2017-08-11T07:09:51.728Z,5.53
2017-08-11T07:12:20.003Z,3.03
2017-08-11T07:14:47.499Z,2.43
2017-08-11T07:17:15.029Z,2.67
2017-08-11T07:19:43.302Z,2.30
2017-08-11T07:22:11.547Z,2.50
2017-08-11T07:24:39.062Z,2.87
2017-08-11T07:27:06.598Z,2.70
2017-08-11T07:29:34.876Z,2.60
2017-08-11T07:32:03.146Z,3.50
2017-08-11T07:34:31.430Z,2.30
2017-08-11T07:36:59.704Z,2.83
2017-08-11T07:39:27.944Z,3.70
2017-08-11T07:41:55.531Z,5.53
2017-08-11T07:44:23.019Z,3.03
2017-08-11T07:46:50.551Z,2.30
2017-08-11T07:49:18.835Z,2.40
2017-08-11T07:51:47.107Z,2.30
2017-08-11T07:54:15.380Z,2.93
2017-08-11T07:56:43.650Z,2.40
2017-08-11T07:59:11.145Z,2.70
2017-08-11T08:01:38.665Z,2.23
2017-08-11T08:04:06.224Z,3.67
2017-08-11T08:06:34.502Z,2.70
2017-08-11T08:09:02.066Z,2.00
2017-08-11T08:11:30.354Z,2.17
2017-08-11T08:13:58.623Z,2.90
2017-08-11T08:16:26.885Z,2.20
2017-08-11T08:19:00.206Z,2.20
2017-08-11T08:21:28.477Z,2.77
2017-08-11T08:23:56.755Z,2.47
2017-08-11T08:26:24.998Z,2.67
2017-08-11T08:28:52.487Z,2.17
2017-08-11T08:31:20.044Z,2.40
2017-08-11T08:33:48.321Z,2.30
2017-08-11T08:36:16.601Z,2.47
2017-08-11T08:38:44.866Z,2.27
2017-08-11T08:41:13.117Z,2.33
2017-08-11T08:43:40.603Z,3.33
2017-08-11T08:46:09.019Z,2.43
2017-08-11T08:48:42.586Z,2.80
2017-08-11T08:51:10.827Z,2.60
2017-08-11T08:53:38.325Z,2.83
2017-08-11T08:56:06.595Z,3.30
2017-08-11T08:58:34.870Z,4.30
2017-08-11T09:01:03.136Z,6.00
2017-08-11T09:03:31.418Z,4.70
2017-08-11T09:05:58.970Z,4.33
2017-08-11T09:08:26.487Z,3.87
2017-08-11T09:10:53.963Z,4.20
2017-08-11T09:13:21.471Z,5.53
2017-08-11T09:15:49.014Z,5.30
2017-08-11T09:18:17.302Z,5.40
2017-08-11T09:20:45.553Z,7.27
2017-08-11T09:23:13.121Z,8.63
2017-08-11T09:25:52.561Z,9.60
2017-08-11T09:28:31.927Z,13.70
2017-08-11T09:31:11.315Z,14.87
2017-08-11T09:33:50.705Z,17.70
2017-08-11T09:36:30.120Z,14.20
2017-08-11T09:38:58.357Z,14.23
2017-08-11T09:41:25.953Z,14.33
2017-08-11T09:43:54.230Z,15.50
2017-08-11T09:46:35.617Z,13.97
2017-08-11T09:49:03.890Z,16.90
2017-08-11T09:51:32.166Z,12.53
2017-08-11T09:54:00.490Z,11.30
2017-08-11T09:56:28.007Z,10.43
2017-08-11T09:58:56.265Z,11.77
2017-08-11T10:01:24.551Z,12.30
2017-08-11T10:03:52.803Z,12.43
2017-08-11T10:06:20.286Z,13.53
2017-08-11T10:08:48.538Z,10.13
2017-08-11T10:11:16.127Z,11.23
2017-08-11T10:13:44.398Z,12.67
2017-08-11T10:16:12.674Z,10.60
2017-08-11T10:18:40.931Z,11.57
2017-08-11T10:21:08.510Z,11.00
2017-08-11T10:23:36.783Z,12.03
2017-08-11T10:26:04.348Z,11.57
2017-08-11T10:28:32.626Z,12.63
2017-08-11T10:31:00.907Z,16.03
2017-08-11T10:33:29.170Z,12.13
2017-08-11T10:35:56.690Z,13.90
2017-08-11T10:38:24.302Z,12.30
2017-08-11T10:40:58.022Z,12.30
2017-08-11T10:43:25.563Z,11.93
2017-08-11T10:45:53.807Z,14.97
2017-08-11T10:48:21.302Z,13.90
2017-08-11T10:50:48.848Z,13.00
2017-08-11T10:53:16.327Z,13.57
2017-08-11T10:55:43.876Z,12.20
2017-08-11T10:58:12.165Z,11.70
2017-08-11T11:00:39.706Z,13.27
2017-08-11T11:03:07.993Z,15.87
2017-08-11T11:05:36.360Z,13.70
2017-08-11T11:08:04.644Z,16.57
2017-08-11T11:10:32.915Z,12.33
2017-08-11T11:13:01.190Z,13.60
2017-08-11T11:15:29.448Z,14.80
2017-08-11T11:17:57.032Z,12.17
2017-08-11T11:20:25.277Z,12.07
2017-08-11T11:22:52.866Z,12.80
2017-08-11T11:25:21.150Z,12.57
2017-08-11T11:27:49.423Z,15.37
2017-08-11T11:30:17.691Z,16.40
2017-08-11T11:32:45.954Z,13.00
2017-08-11T11:35:13.546Z,14.70
2017-08-11T11:37:41.032Z,14.03
2017-08-11T11:40:08.546Z,11.63
2017-08-11T11:42:36.823Z,12.60
2017-08-11T11:45:05.094Z,15.53
2017-08-11T11:47:33.369Z,11.80
2017-08-11T11:50:01.649Z,13.37
2017-08-11T11:52:29.908Z,12.90
2017-08-11T11:54:57.399Z,13.20
2017-08-11T11:57:25.655Z,14.17
2017-08-11T11:59:53.938Z,13.97
2017-08-11T12:02:22.201Z,15.40
2017-08-11T12:04:49.768Z,12.97
2017-08-11T12:07:18.052Z,14.17
2017-08-11T12:09:46.326Z,14.57
2017-08-11T12:12:14.606Z,18.30
2017-08-11T12:14:42.868Z,14.27
2017-08-11T12:17:11.124Z,13.93
2017-08-11T12:19:38.707Z,15.27
2017-08-11T12:22:06.947Z,15.83
2017-08-11T12:24:34.449Z,13.13
2017-08-11T12:27:02.698Z,15.07
2017-08-11T12:29:30.278Z,17.33
2017-08-11T12:31:57.766Z,18.57
2017-08-11T12:34:25.257Z,15.23
2017-08-11T12:36:52.840Z,15.17
2017-08-11T12:39:20.431Z,13.83
2017-08-11T12:41:48.693Z,12.20
2017-08-11T12:44:16.966Z,14.63
2017-08-11T12:46:44.471Z,12.97
2017-08-11T12:49:11.990Z,12.67
2017-08-11T12:51:40.243Z,13.70
2017-08-11T12:54:08.479Z,14.60
2017-08-11T12:56:36.006Z,13.20
2017-08-11T12:59:04.275Z,12.20
2017-08-11T13:01:32.534Z,14.10
2017-08-11T13:04:00.028Z,14.07
2017-08-11T13:06:27.519Z,15.47
2017-08-11T13:08:55.014Z,13.43
2017-08-11T13:11:22.496Z,13.70
2017-08-11T13:13:50.767Z,13.07
2017-08-11T13:16:19.033Z,13.27
2017-08-11T13:18:47.293Z,13.47
2017-08-11T13:21:14.801Z,12.00
2017-08-11T13:23:42.331Z,11.90
2017-08-11T13:26:10.587Z,13.00
2017-08-11T13:28:38.169Z,13.30
2017-08-11T13:31:06.428Z,11.07
2017-08-11T13:33:33.923Z,10.90
2017-08-11T13:36:01.422Z,11.47
2017-08-11T13:38:28.916Z,12.03
2017-08-11T13:40:57.190Z,15.80
2017-08-11T13:43:25.451Z,13.27
2017-08-11T13:45:52.959Z,13.30
2017-08-11T13:48:20.488Z,11.97
2017-08-11T13:50:48.753Z,12.60
2017-08-11T13:53:16.243Z,13.33
2017-08-11T13:55:43.744Z,12.03
2017-08-11T13:58:11.234Z,12.93
2017-08-11T14:00:39.517Z,15.97
2017-08-11T14:03:07.792Z,13.43
2017-08-11T14:05:36.048Z,13.90
2017-08-11T14:08:03.546Z,13.80
2017-08-11T14:10:31.085Z,17.97
2017-08-11T14:12:59.349Z,13.87
2017-08-11T14:15:27.639Z,14.20
2017-08-11T14:17:55.889Z,16.03
2017-08-11T14:20:23.475Z,14.13
2017-08-11T14:22:51.741Z,15.17
2017-08-11T14:25:26.678Z,14.80
2017-08-11T14:27:54.959Z,16.63
2017-08-11T14:30:23.206Z,16.00
2017-08-11T14:32:50.792Z,14.90
2017-08-11T14:35:19.718Z,14.87
2017-08-11T14:37:47.242Z,15.63
2017-08-11T14:40:15.522Z,16.33
2017-08-11T14:42:43.809Z,18.30
2017-08-11T14:45:11.357Z,17.50
2017-08-11T14:47:39.635Z,18.33
2017-08-11T14:50:07.914Z,17.33
2017-08-11T14:52:36.177Z,16.90
2017-08-11T14:55:04.467Z,16.33
2017-08-11T14:57:40.728Z,26.83
2017-08-11T15:00:09.003Z,17.33
2017-08-11T15:02:37.270Z,17.27
2017-08-11T15:05:05.563Z,17.33
2017-08-11T15:07:33.815Z,16.93
2017-08-11T15:10:01.300Z,20.47
2017-08-11T15:12:28.844Z,16.93
2017-08-11T15:14:57.216Z,15.70
2017-08-11T15:17:24.791Z,17.47
2017-08-11T15:19:53.057Z,16.20
2017-08-11T15:22:21.432Z,16.10
2017-08-11T15:24:49.710Z,16.13
2017-08-11T15:27:17.997Z,17.00
2017-08-11T15:29:46.234Z,17.00
2017-08-11T15:32:13.827Z,19.60
2017-08-11T15:34:42.083Z,16.30
2017-08-11T15:37:09.599Z,16.43
2017-08-11T15:39:37.120Z,17.70
2017-08-11T15:42:05.384Z,16.50
2017-08-11T15:44:32.874Z,17.50
2017-08-11T15:47:00.413Z,17.93
2017-08-11T15:49:28.689Z,16.40
2017-08-11T15:51:56.970Z,17.23
2017-08-11T15:54:25.228Z,19.63
2017-08-11T15:56:52.713Z,16.80
2017-08-11T15:59:20.986Z,18.20
2017-08-11T16:01:49.251Z,17.67
2017-08-11T16:04:17.517Z,18.17
2017-08-11T16:06:46.387Z,16.07
2017-08-11T16:09:13.978Z,20.57
2017-08-11T16:11:42.252Z,15.10
2017-08-11T16:14:10.524Z,16.60
2017-08-11T16:16:38.019Z,14.60
2017-08-11T16:19:05.504Z,15.47
2017-08-11T16:21:33.003Z,14.80
2017-08-11T16:24:01.289Z,14.20
2017-08-11T16:26:29.543Z,15.00
2017-08-11T16:28:57.121Z,14.37
2017-08-11T16:31:25.392Z,18.23
2017-08-11T16:33:53.724Z,15.53
2017-08-11T16:36:21.238Z,15.20
2017-08-11T16:38:48.806Z,15.30
2017-08-11T16:41:16.352Z,14.20
2017-08-11T16:43:44.608Z,13.60
2017-08-11T16:46:13.627Z,14.43
2017-08-11T16:48:41.998Z,13.97
2017-08-11T16:51:09.462Z,15.83
2017-08-11T16:53:37.734Z,14.10
2017-08-11T16:56:06.020Z,14.40
2017-08-11T16:58:34.290Z,17.57
2017-08-11T17:01:02.530Z,14.00
2017-08-11T17:03:30.128Z,15.30
2017-08-11T17:05:58.402Z,17.07
2017-08-11T17:08:26.672Z,16.47
2017-08-11T17:10:54.923Z,16.80
2017-08-11T17:13:22.515Z,15.77
2017-08-11T17:15:50.766Z,18.63
2017-08-11T17:18:18.346Z,14.97
2017-08-11T17:20:46.627Z,15.10
2017-08-11T17:23:14.903Z,14.57
2017-08-11T17:25:43.186Z,14.00
2017-08-11T17:28:11.457Z,13.00
2017-08-11T17:30:39.725Z,11.90
2017-08-11T17:33:08.006Z,12.93
2017-08-11T17:35:36.281Z,13.40
2017-08-11T17:38:04.562Z,13.40
2017-08-11T17:40:32.839Z,13.53
2017-08-11T17:43:01.085Z,14.07
2017-08-11T17:45:28.671Z,12.70
2017-08-11T17:47:56.950Z,15.10
2017-08-11T17:50:31.677Z,13.20
2017-08-11T17:52:59.958Z,7.80
2017-08-11T17:55:28.239Z,9.90
2017-08-11T17:57:56.473Z,8.07
2017-08-11T18:00:23.961Z,8.57
2017-08-11T18:02:52.226Z,8.70
2017-08-11T18:05:19.712Z,9.97
2017-08-11T18:07:47.254Z,8.93
2017-08-11T18:10:15.534Z,10.13
2017-08-11T18:12:43.801Z,9.83
2017-08-11T18:15:12.103Z,9.77
2017-08-11T18:17:39.639Z,9.23
2017-08-11T18:20:07.918Z,10.10
2017-08-11T18:22:42.751Z,8.90
2017-08-11T18:25:10.989Z,9.50
2017-08-11T18:27:38.581Z,10.30
2017-08-11T18:30:06.843Z,10.17
2017-08-11T18:32:34.356Z,13.00
2017-08-11T18:35:01.839Z,12.70
2017-08-11T18:37:29.335Z,11.67
2017-08-11T18:39:57.579Z,11.90
2017-08-11T18:42:25.059Z,13.03
2017-08-11T18:44:52.627Z,12.60
2017-08-11T18:47:20.906Z,13.80
2017-08-11T18:49:49.165Z,13.97
2017-08-11T18:52:16.744Z,13.43
2017-08-11T18:54:45.019Z,15.03
2017-08-11T18:57:13.305Z,14.33
2017-08-11T18:59:41.584Z,15.10
2017-08-11T19:02:09.845Z,16.50
2017-08-11T19:04:37.407Z,16.80
2017-08-11T19:07:05.646Z,16.10
2017-08-11T19:09:33.250Z,17.40
2017-08-11T19:12:01.516Z,17.20
2017-08-11T19:14:29.900Z,16.07
2017-08-11T19:16:57.389Z,15.53
2017-08-11T19:19:24.919Z,16.97
2017-08-11T19:21:53.197Z,17.53
2017-08-11T19:24:21.470Z,19.27
2017-08-11T19:26:49.745Z,15.70
2017-08-11T19:29:18.017Z,19.47
2017-08-11T19:31:46.291Z,16.83
2017-08-11T19:34:14.583Z,16.27
2017-08-11T19:36:42.848Z,18.37
2017-08-11T19:39:11.126Z,17.00
2017-08-11T19:41:39.412Z,16.70
2017-08-11T19:44:07.679Z,17.57
2017-08-11T19:46:35.953Z,18.00
2017-08-11T19:49:04.193Z,17.23
2017-08-11T19:51:31.795Z,17.07
2017-08-11T19:54:00.068Z,18.27
2017-08-11T19:56:28.345Z,17.43
2017-08-11T19:58:56.600Z,20.43
2017-08-11T20:01:24.175Z,21.90
2017-08-11T20:03:52.438Z,23.33
2017-08-11T20:06:19.923Z,17.93
2017-08-11T20:08:48.185Z,17.20
2017-08-11T20:11:16.465Z,17.00
2017-08-11T20:13:45.555Z,15.73
2017-08-11T20:16:13.850Z,17.53
2017-08-11T20:18:42.109Z,14.83
2017-08-11T20:21:09.604Z,14.20
2017-08-11T20:23:37.892Z,16.87
2017-08-11T20:26:05.410Z,15.73
2017-08-11T20:28:33.804Z,14.20
2017-08-11T20:31:01.346Z,13.23
2017-08-11T20:33:29.615Z,12.33
2017-08-11T20:35:57.102Z,12.63
2017-08-11T20:38:24.610Z,12.43
2017-08-11T20:40:52.214Z,12.40
2017-08-11T20:43:19.765Z,13.43
2017-08-11T20:45:48.050Z,12.70
2017-08-11T20:48:15.604Z,13.83
2017-08-11T20:50:43.880Z,13.43
2017-08-11T20:53:12.159Z,12.20
2017-08-11T20:55:40.530Z,11.47
2017-08-11T20:58:08.790Z,13.37
2017-08-11T21:00:36.365Z,11.87
2017-08-11T21:03:04.636Z,11.77
2017-08-11T21:05:32.909Z,10.40
2017-08-11T21:08:01.200Z,12.53
2017-08-11T21:10:29.486Z,12.70
2017-08-11T21:12:57.726Z,12.50
2017-08-11T21:15:25.307Z,13.47
2017-08-11T21:17:53.580Z,13.67
2017-08-11T21:20:30.366Z,12.03
2017-08-11T21:22:58.631Z,12.57
2017-08-11T21:25:26.881Z,12.63
2017-08-11T21:27:54.464Z,11.00
2017-08-11T21:30:22.746Z,13.87
2017-08-11T21:32:51.003Z,10.70
2017-08-11T21:35:18.496Z,10.27
2017-08-11T21:37:46.044Z,10.60
2017-08-11T21:40:14.312Z,11.17
2017-08-11T21:42:42.579Z,10.43
2017-08-11T21:45:10.158Z,10.63
2017-08-11T21:47:38.451Z,11.40
2017-08-11T21:50:05.983Z,10.47
2017-08-11T21:52:34.267Z,12.03
2017-08-11T21:55:02.533Z,12.80
2017-08-11T21:57:30.101Z,11.77
2017-08-11T21:59:58.381Z,13.53
2017-08-11T22:02:26.639Z,13.00
2017-08-11T22:04:54.218Z,14.70
2017-08-11T22:07:22.506Z,13.13
2017-08-11T22:09:50.088Z,14.63
2017-08-11T22:12:17.581Z,13.20
2017-08-11T22:14:45.224Z,14.30
2017-08-11T22:17:12.733Z,15.40
2017-08-11T22:19:41.020Z,13.77
2017-08-11T22:22:08.773Z,22.00
2017-08-11T22:24:37.041Z,15.17
2017-08-11T22:27:04.604Z,14.43
2017-08-11T22:29:32.894Z,16.30
2017-08-11T22:32:01.159Z,15.47
2017-08-11T22:34:32.670Z,13.53
2017-08-11T22:37:00.244Z,15.27
2017-08-11T22:39:27.738Z,15.83
2017-08-11T22:41:56.003Z,17.17
2017-08-11T22:44:24.284Z,11.60
2017-08-11T22:46:52.554Z,14.53
2017-08-11T22:49:20.836Z,15.83
2017-08-11T22:51:49.109Z,13.00
2017-08-11T22:54:17.389Z,12.87
2017-08-11T22:56:45.666Z,17.27
2017-08-11T22:59:13.938Z,13.50
2017-08-11T23:01:48.565Z,12.70
2017-08-11T23:04:16.837Z,12.73
2017-08-11T23:06:45.238Z,14.47
2017-08-11T23:09:12.783Z,16.43
2017-08-11T23:11:41.060Z,14.60
2017-08-11T23:14:09.428Z,14.30
2017-08-11T23:16:37.005Z,13.97
2017-08-11T23:19:05.272Z,14.20
2017-08-11T23:21:32.843Z,13.20
2017-08-11T23:24:00.341Z,12.63
2017-08-11T23:26:27.849Z,12.80
2017-08-11T23:28:56.224Z,12.57
2017-08-11T23:31:24.504Z,10.90
2017-08-11T23:33:52.778Z,11.10
2017-08-11T23:36:21.051Z,12.57
2017-08-11T23:38:49.330Z,12.30
2017-08-11T23:41:17.708Z,11.50
2017-08-11T23:43:46.001Z,10.60
2017-08-11T23:46:13.538Z,10.90
2017-08-11T23:48:41.112Z,11.73
2017-08-11T23:51:09.388Z,16.10
2017-08-11T23:53:37.664Z,10.60
2017-08-11T23:56:05.940Z,10.27
2017-08-11T23:58:34.205Z,11.77
